CYNL

METAR CYNL 272300Z AUTO 30008KT 9SM BKN013 BKN017 OVC022 M05/M05 A2939 RMK AO1 PRESRR SLP000
METAR
LOCATION
CYNL
DATE - TIME
272300Z
WIND
300 TRUE @ 8 KNOTS
VISIBILITY
9SM
RUNWAY VISUAL RANGE
NOT REPORTED
WEATHER
CLOUDINESS
BKN013 BKN017 OVC022
TEMP / DEWPOINT
-5 ºC / -5 ºC
ALTIMETER
29.39 in. Hg
RECENT WEATHER
NOT REPORTED
WIND SHEAR
NOT REPORTED
REMARKS
RMK AO1 PRESRR SLP000
SEA LEVEL PRESSURE: hPa

CYNL

SPECI CYNL 272255Z AUTO 30008KT 3SM BKN013 OVC022 M04/M05 A2939 RMK AO1 PRESRR SLP000
SPECI
LOCATION
CYNL
DATE - TIME
272255Z
WIND
300 TRUE @ 8 KNOTS
VISIBILITY
3SM
RUNWAY VISUAL RANGE
NOT REPORTED
WEATHER
CLOUDINESS
BKN013 OVC022
TEMP / DEWPOINT
-4 ºC / -5 ºC
ALTIMETER
29.39 in. Hg
RECENT WEATHER
NOT REPORTED
WIND SHEAR
NOT REPORTED
REMARKS
RMK AO1 PRESRR SLP000
SEA LEVEL PRESSURE: hPa

CYNL

SPECI CYNL 272252Z AUTO 29009KT 2 1/2SM BKN013 OVC021 M04/M05 A2939 RMK AO1 PRESRR SLP999
SPECI
LOCATION
CYNL
DATE - TIME
272252Z
WIND
290 TRUE @ 9 KNOTS
VISIBILITY
2 1/2SM
RUNWAY VISUAL RANGE
NOT REPORTED
WEATHER
CLOUDINESS
BKN013 OVC021
TEMP / DEWPOINT
-4 ºC / -5 ºC
ALTIMETER
29.39 in. Hg
RECENT WEATHER
NOT REPORTED
WIND SHEAR
NOT REPORTED
REMARKS
RMK AO1 PRESRR SLP999
SEA LEVEL PRESSURE: hPa

Your time UTC time
 
 
Weather data provided by AXYS Technologies Inc., www.axystechnologies.com
 
Station History